sensor_id;sensor_type;location;lat;lon;timestamp;P1;durP1;ratioP1;P2;durP2;ratioP2
66607;SDS011;53462;39.616;8.824;2023-08-20T03:57:07;13.15;;;6.93;;
66607;SDS011;53462;39.616;8.824;2023-08-20T03:59:34;15.38;;;7.10;;
66607;SDS011;53462;39.616;8.824;2023-08-20T04:02:00;12.38;;;7.05;;
66607;SDS011;53462;39.616;8.824;2023-08-20T04:04:26;12.57;;;6.97;;
66607;SDS011;53462;39.616;8.824;2023-08-20T04:06:52;15.63;;;6.70;;
66607;SDS011;53462;39.616;8.824;2023-08-20T04:09:18;11.80;;;6.72;;
66607;SDS011;53462;39.616;8.824;2023-08-20T04:11:44;12.55;;;7.18;;
66607;SDS011;53462;39.616;8.824;2023-08-20T04:14:10;12.23;;;6.68;;
66607;SDS011;53462;39.616;8.824;2023-08-20T04:16:36;10.43;;;6.32;;
66607;SDS011;53462;39.616;8.824;2023-08-20T04:19:02;9.93;;;6.32;;
66607;SDS011;53462;39.616;8.824;2023-08-20T04:21:28;8.48;;;6.50;;
66607;SDS011;53462;39.616;8.824;2023-08-20T04:23:54;11.32;;;6.60;;
66607;SDS011;53462;39.616;8.824;2023-08-20T04:26:20;8.88;;;6.75;;
66607;SDS011;53462;39.616;8.824;2023-08-20T04:28:46;7.47;;;6.60;;
66607;SDS011;53462;39.616;8.824;2023-08-20T04:31:12;9.35;;;7.30;;
66607;SDS011;53462;39.616;8.824;2023-08-20T04:34:01;9.50;;;6.50;;
66607;SDS011;53462;39.616;8.824;2023-08-20T04:36:39;7.47;;;5.53;;
66607;SDS011;53462;39.616;8.824;2023-08-20T04:39:05;6.13;;;5.53;;
66607;SDS011;53462;39.616;8.824;2023-08-20T04:41:34;8.35;;;5.47;;
66607;SDS011;53462;39.616;8.824;2023-08-20T04:44:01;5.95;;;5.22;;
66607;SDS011;53462;39.616;8.824;2023-08-20T04:46:27;6.28;;;5.22;;
66607;SDS011;53462;39.616;8.824;2023-08-20T04:48:54;7.45;;;5.75;;
66607;SDS011;53462;39.616;8.824;2023-08-20T04:51:20;11.88;;;6.10;;
66607;SDS011;53462;39.616;8.824;2023-08-20T04:53:46;15.23;;;6.60;;
66607;SDS011;53462;39.616;8.824;2023-08-20T04:56:12;8.02;;;6.20;;
66607;SDS011;53462;39.616;8.824;2023-08-20T04:58:39;16.25;;;6.57;;
66607;SDS011;53462;39.616;8.824;2023-08-20T05:01:05;12.77;;;6.40;;
66607;SDS011;53462;39.616;8.824;2023-08-20T05:03:34;12.98;;;7.78;;
66607;SDS011;53462;39.616;8.824;2023-08-20T05:06:00;7.40;;;6.28;;
66607;SDS011;53462;39.616;8.824;2023-08-20T05:08:27;9.85;;;6.50;;
66607;SDS011;53462;39.616;8.824;2023-08-20T05:10:53;10.65;;;6.57;;
66607;SDS011;53462;39.616;8.824;2023-08-20T05:13:19;8.13;;;6.38;;
66607;SDS011;53462;39.616;8.824;2023-08-20T05:15:48;13.43;;;7.55;;
66607;SDS011;53462;39.616;8.824;2023-08-20T05:18:14;19.58;;;7.93;;
66607;SDS011;53462;39.616;8.824;2023-08-20T05:20:40;15.43;;;7.32;;
66607;SDS011;53462;39.616;8.824;2023-08-20T05:23:06;15.57;;;8.13;;
66607;SDS011;53462;39.616;8.824;2023-08-20T05:25:32;16.15;;;8.63;;
66607;SDS011;53462;39.616;8.824;2023-08-20T05:27:58;12.18;;;8.90;;
66607;SDS011;53462;39.616;8.824;2023-08-20T05:30:26;12.65;;;9.18;;
66607;SDS011;53462;39.616;8.824;2023-08-20T05:32:53;16.33;;;9.55;;
66607;SDS011;53462;39.616;8.824;2023-08-20T05:35:20;14.18;;;10.23;;
66607;SDS011;53462;39.616;8.824;2023-08-20T05:37:48;14.55;;;10.00;;
66607;SDS011;53462;39.616;8.824;2023-08-20T05:40:15;17.20;;;10.57;;
66607;SDS011;53462;39.616;8.824;2023-08-20T05:42:41;17.95;;;10.82;;
66607;SDS011;53462;39.616;8.824;2023-08-20T05:45:07;15.00;;;9.73;;
66607;SDS011;53462;39.616;8.824;2023-08-20T05:47:34;15.95;;;10.40;;
66607;SDS011;53462;39.616;8.824;2023-08-20T05:50:00;16.33;;;11.10;;
66607;SDS011;53462;39.616;8.824;2023-08-20T05:52:26;17.67;;;11.27;;
66607;SDS011;53462;39.616;8.824;2023-08-20T05:54:52;20.88;;;11.15;;
66607;SDS011;53462;39.616;8.824;2023-08-20T05:57:18;18.20;;;10.80;;
66607;SDS011;53462;39.616;8.824;2023-08-20T05:59:44;16.85;;;11.10;;
66607;SDS011;53462;39.616;8.824;2023-08-20T06:02:15;15.45;;;10.35;;
66607;SDS011;53462;39.616;8.824;2023-08-20T06:04:42;16.92;;;11.20;;
66607;SDS011;53462;39.616;8.824;2023-08-20T06:07:09;17.50;;;10.63;;
66607;SDS011;53462;39.616;8.824;2023-08-20T06:09:34;16.90;;;10.07;;
66607;SDS011;53462;39.616;8.824;2023-08-20T06:12:00;20.40;;;11.10;;
66607;SDS011;53462;39.616;8.824;2023-08-20T06:14:27;14.13;;;10.60;;
66607;SDS011;53462;39.616;8.824;2023-08-20T06:16:53;21.40;;;11.00;;
66607;SDS011;53462;39.616;8.824;2023-08-20T06:19:18;18.90;;;10.98;;
66607;SDS011;53462;39.616;8.824;2023-08-20T06:21:45;17.33;;;10.70;;
66607;SDS011;53462;39.616;8.824;2023-08-20T06:24:11;19.75;;;11.02;;
66607;SDS011;53462;39.616;8.824;2023-08-20T06:26:37;17.38;;;10.60;;
66607;SDS011;53462;39.616;8.824;2023-08-20T06:29:02;17.13;;;10.35;;
66607;SDS011;53462;39.616;8.824;2023-08-20T06:31:28;16.25;;;11.00;;
66607;SDS011;53462;39.616;8.824;2023-08-20T06:33:54;19.60;;;10.77;;
66607;SDS011;53462;39.616;8.824;2023-08-20T06:36:20;15.52;;;10.02;;
66607;SDS011;53462;39.616;8.824;2023-08-20T06:38:46;18.77;;;10.50;;
66607;SDS011;53462;39.616;8.824;2023-08-20T06:41:12;17.25;;;10.30;;
66607;SDS011;53462;39.616;8.824;2023-08-20T06:43:38;20.08;;;10.27;;
66607;SDS011;53462;39.616;8.824;2023-08-20T06:46:04;16.55;;;10.15;;
66607;SDS011;53462;39.616;8.824;2023-08-20T06:48:30;18.30;;;9.80;;
66607;SDS011;53462;39.616;8.824;2023-08-20T06:50:56;16.10;;;10.15;;
66607;SDS011;53462;39.616;8.824;2023-08-20T06:53:22;14.60;;;9.63;;
66607;SDS011;53462;39.616;8.824;2023-08-20T06:55:48;14.95;;;9.52;;
66607;SDS011;53462;39.616;8.824;2023-08-20T06:58:14;14.98;;;8.57;;
66607;SDS011;53462;39.616;8.824;2023-08-20T07:00:40;14.40;;;9.05;;
66607;SDS011;53462;39.616;8.824;2023-08-20T07:03:06;17.50;;;8.85;;
66607;SDS011;53462;39.616;8.824;2023-08-20T07:05:32;15.43;;;8.95;;
66607;SDS011;53462;39.616;8.824;2023-08-20T07:07:58;16.85;;;8.63;;
66607;SDS011;53462;39.616;8.824;2023-08-20T07:10:24;18.55;;;8.80;;
66607;SDS011;53462;39.616;8.824;2023-08-20T07:12:50;13.10;;;7.93;;
66607;SDS011;53462;39.616;8.824;2023-08-20T07:15:16;18.13;;;8.13;;
66607;SDS011;53462;39.616;8.824;2023-08-20T07:17:42;12.35;;;7.47;;
66607;SDS011;53462;39.616;8.824;2023-08-20T07:20:07;10.35;;;7.35;;
66607;SDS011;53462;39.616;8.824;2023-08-20T07:22:34;15.27;;;7.40;;
66607;SDS011;53462;39.616;8.824;2023-08-20T07:25:00;11.80;;;6.55;;
66607;SDS011;53462;39.616;8.824;2023-08-20T07:27:26;12.55;;;7.00;;
66607;SDS011;53462;39.616;8.824;2023-08-20T07:29:52;14.48;;;7.30;;
66607;SDS011;53462;39.616;8.824;2023-08-20T07:32:18;12.77;;;6.95;;
66607;SDS011;53462;39.616;8.824;2023-08-20T07:34:44;12.75;;;6.38;;
66607;SDS011;53462;39.616;8.824;2023-08-20T07:37:09;13.98;;;6.85;;
66607;SDS011;53462;39.616;8.824;2023-08-20T07:39:35;15.93;;;7.20;;
66607;SDS011;53462;39.616;8.824;2023-08-20T07:42:01;10.88;;;6.70;;
66607;SDS011;53462;39.616;8.824;2023-08-20T07:44:27;9.18;;;6.32;;
66607;SDS011;53462;39.616;8.824;2023-08-20T07:46:53;9.80;;;6.68;;
66607;SDS011;53462;39.616;8.824;2023-08-20T07:49:19;10.38;;;6.30;;
66607;SDS011;53462;39.616;8.824;2023-08-20T07:51:45;10.65;;;6.85;;
66607;SDS011;53462;39.616;8.824;2023-08-20T07:54:11;9.35;;;5.97;;
66607;SDS011;53462;39.616;8.824;2023-08-20T07:56:37;15.40;;;6.63;;
66607;SDS011;53462;39.616;8.824;2023-08-20T07:59:03;12.75;;;6.60;;
66607;SDS011;53462;39.616;8.824;2023-08-20T08:01:29;9.50;;;6.43;;
66607;SDS011;53462;39.616;8.824;2023-08-20T08:03:55;11.65;;;6.40;;
66607;SDS011;53462;39.616;8.824;2023-08-20T08:06:21;8.93;;;6.18;;
66607;SDS011;53462;39.616;8.824;2023-08-20T08:08:49;11.23;;;6.05;;
66607;SDS011;53462;39.616;8.824;2023-08-20T08:11:14;12.00;;;6.05;;
66607;SDS011;53462;39.616;8.824;2023-08-20T08:13:40;11.60;;;6.97;;
66607;SDS011;53462;39.616;8.824;2023-08-20T08:16:06;12.07;;;6.13;;
66607;SDS011;53462;39.616;8.824;2023-08-20T08:18:32;10.23;;;6.25;;
66607;SDS011;53462;39.616;8.824;2023-08-20T08:20:58;10.15;;;5.88;;
66607;SDS011;53462;39.616;8.824;2023-08-20T08:23:24;10.15;;;5.65;;
66607;SDS011;53462;39.616;8.824;2023-08-20T08:25:50;12.43;;;6.30;;
66607;SDS011;53462;39.616;8.824;2023-08-20T08:28:16;11.13;;;5.90;;
66607;SDS011;53462;39.616;8.824;2023-08-20T08:30:42;13.68;;;5.93;;
66607;SDS011;53462;39.616;8.824;2023-08-20T08:33:08;14.73;;;6.05;;
66607;SDS011;53462;39.616;8.824;2023-08-20T08:35:34;12.20;;;6.32;;
66607;SDS011;53462;39.616;8.824;2023-08-20T08:38:00;10.23;;;5.75;;
66607;SDS011;53462;39.616;8.824;2023-08-20T08:40:28;10.52;;;5.35;;
66607;SDS011;53462;39.616;8.824;2023-08-20T08:42:55;10.13;;;5.50;;
66607;SDS011;53462;39.616;8.824;2023-08-20T08:45:21;7.90;;;5.25;;
66607;SDS011;53462;39.616;8.824;2023-08-20T08:47:47;12.15;;;6.57;;
66607;SDS011;53462;39.616;8.824;2023-08-20T08:50:14;9.52;;;5.10;;
66607;SDS011;53462;39.616;8.824;2023-08-20T08:52:41;9.48;;;4.80;;
66607;SDS011;53462;39.616;8.824;2023-08-20T08:55:07;9.18;;;4.38;;
66607;SDS011;53462;39.616;8.824;2023-08-20T08:57:37;9.55;;;4.70;;
66607;SDS011;53462;39.616;8.824;2023-08-20T09:00:03;7.50;;;4.82;;
66607;SDS011;53462;39.616;8.824;2023-08-20T09:02:30;10.80;;;4.45;;
66607;SDS011;53462;39.616;8.824;2023-08-20T09:04:56;6.72;;;4.50;;
66607;SDS011;53462;39.616;8.824;2023-08-20T09:07:23;6.75;;;4.80;;
66607;SDS011;53462;39.616;8.824;2023-08-20T09:09:49;11.43;;;4.10;;
66607;SDS011;53462;39.616;8.824;2023-08-20T09:12:18;6.78;;;4.35;;
66607;SDS011;53462;39.616;8.824;2023-08-20T09:14:48;10.30;;;4.18;;
66607;SDS011;53462;39.616;8.824;2023-08-20T09:17:16;8.98;;;4.03;;
66607;SDS011;53462;39.616;8.824;2023-08-20T09:19:43;7.88;;;4.28;;
66607;SDS011;53462;39.616;8.824;2023-08-20T09:22:13;12.30;;;4.53;;
66607;SDS011;53462;39.616;8.824;2023-08-20T09:27:09;11.27;;;4.10;;
66607;SDS011;53462;39.616;8.824;2023-08-20T09:29:46;7.35;;;4.07;;
66607;SDS011;53462;39.616;8.824;2023-08-20T09:32:17;6.65;;;4.50;;
66607;SDS011;53462;39.616;8.824;2023-08-20T09:34:51;6.30;;;3.83;;
66607;SDS011;53462;39.616;8.824;2023-08-20T09:37:22;5.07;;;3.95;;
66607;SDS011;53462;39.616;8.824;2023-08-20T09:39:49;9.65;;;4.30;;
66607;SDS011;53462;39.616;8.824;2023-08-20T09:42:15;7.50;;;4.57;;
66607;SDS011;53462;39.616;8.824;2023-08-20T09:44:43;12.75;;;4.40;;
66607;SDS011;53462;39.616;8.824;2023-08-20T09:47:10;7.75;;;4.35;;
66607;SDS011;53462;39.616;8.824;2023-08-20T09:52:05;10.82;;;4.00;;
66607;SDS011;53462;39.616;8.824;2023-08-20T09:57:12;7.38;;;4.10;;
66607;SDS011;53462;39.616;8.824;2023-08-20T09:59:46;9.23;;;4.30;;
66607;SDS011;53462;39.616;8.824;2023-08-20T10:02:13;7.78;;;4.18;;
66607;SDS011;53462;39.616;8.824;2023-08-20T10:04:40;7.28;;;4.38;;
66607;SDS011;53462;39.616;8.824;2023-08-20T10:07:09;11.75;;;4.65;;
66607;SDS011;53462;39.616;8.824;2023-08-20T10:09:37;7.80;;;4.25;;
66607;SDS011;53462;39.616;8.824;2023-08-20T10:12:05;8.25;;;4.32;;
66607;SDS011;53462;39.616;8.824;2023-08-20T10:14:31;9.73;;;4.10;;
66607;SDS011;53462;39.616;8.824;2023-08-20T10:16:57;5.57;;;4.40;;
66607;SDS011;53462;39.616;8.824;2023-08-20T10:19:24;9.93;;;4.30;;
66607;SDS011;53462;39.616;8.824;2023-08-20T10:21:53;10.57;;;4.53;;
66607;SDS011;53462;39.616;8.824;2023-08-20T10:24:19;6.95;;;4.20;;
66607;SDS011;53462;39.616;8.824;2023-08-20T10:26:45;9.10;;;4.05;;
66607;SDS011;53462;39.616;8.824;2023-08-20T10:32:05;7.18;;;3.95;;
66607;SDS011;53462;39.616;8.824;2023-08-20T10:34:36;6.93;;;4.25;;
66607;SDS011;53462;39.616;8.824;2023-08-20T10:37:10;7.05;;;4.80;;
66607;SDS011;53462;39.616;8.824;2023-08-20T10:39:40;7.13;;;4.30;;
66607;SDS011;53462;39.616;8.824;2023-08-20T10:42:09;8.73;;;4.00;;
66607;SDS011;53462;39.616;8.824;2023-08-20T10:47:25;6.00;;;4.20;;
66607;SDS011;53462;39.616;8.824;2023-08-20T10:50:01;9.45;;;4.50;;
66607;SDS011;53462;39.616;8.824;2023-08-20T10:52:27;7.25;;;4.10;;
66607;SDS011;53462;39.616;8.824;2023-08-20T10:54:55;7.18;;;4.10;;
66607;SDS011;53462;39.616;8.824;2023-08-20T10:57:21;8.40;;;3.85;;
66607;SDS011;53462;39.616;8.824;2023-08-20T10:59:57;8.40;;;4.10;;
66607;SDS011;53462;39.616;8.824;2023-08-20T11:02:26;8.88;;;4.22;;
66607;SDS011;53462;39.616;8.824;2023-08-20T11:04:53;7.45;;;4.07;;
66607;SDS011;53462;39.616;8.824;2023-08-20T11:07:19;12.32;;;4.30;;
66607;SDS011;53462;39.616;8.824;2023-08-20T11:09:45;9.68;;;4.10;;
66607;SDS011;53462;39.616;8.824;2023-08-20T11:12:16;7.65;;;4.38;;
66607;SDS011;53462;39.616;8.824;2023-08-20T11:14:46;6.35;;;4.22;;
66607;SDS011;53462;39.616;8.824;2023-08-20T11:17:12;10.07;;;4.60;;
66607;SDS011;53462;39.616;8.824;2023-08-20T11:19:39;4.82;;;3.80;;
66607;SDS011;53462;39.616;8.824;2023-08-20T11:22:05;9.75;;;4.45;;
66607;SDS011;53462;39.616;8.824;2023-08-20T11:24:31;7.63;;;4.07;;
66607;SDS011;53462;39.616;8.824;2023-08-20T11:26:57;6.93;;;4.07;;
66607;SDS011;53462;39.616;8.824;2023-08-20T11:29:25;7.95;;;3.75;;
66607;SDS011;53462;39.616;8.824;2023-08-20T11:31:51;8.13;;;4.00;;
66607;SDS011;53462;39.616;8.824;2023-08-20T11:34:20;8.02;;;4.13;;
66607;SDS011;53462;39.616;8.824;2023-08-20T11:36:47;7.35;;;3.80;;
66607;SDS011;53462;39.616;8.824;2023-08-20T11:39:16;7.20;;;3.90;;
66607;SDS011;53462;39.616;8.824;2023-08-20T11:41:43;5.88;;;3.80;;
66607;SDS011;53462;39.616;8.824;2023-08-20T11:44:09;7.55;;;3.97;;
66607;SDS011;53462;39.616;8.824;2023-08-20T11:46:42;8.02;;;4.00;;
66607;SDS011;53462;39.616;8.824;2023-08-20T11:49:10;6.20;;;3.50;;
66607;SDS011;53462;39.616;8.824;2023-08-20T11:51:37;5.88;;;3.63;;
66607;SDS011;53462;39.616;8.824;2023-08-20T11:54:08;6.80;;;3.60;;
66607;SDS011;53462;39.616;8.824;2023-08-20T11:56:35;6.90;;;3.15;;
66607;SDS011;53462;39.616;8.824;2023-08-20T11:59:08;5.68;;;3.50;;
66607;SDS011;53462;39.616;8.824;2023-08-20T12:01:36;6.07;;;3.28;;
66607;SDS011;53462;39.616;8.824;2023-08-20T12:04:03;7.07;;;3.25;;
66607;SDS011;53462;39.616;8.824;2023-08-20T12:06:30;4.60;;;3.00;;
66607;SDS011;53462;39.616;8.824;2023-08-20T12:08:56;8.77;;;2.72;;
66607;SDS011;53462;39.616;8.824;2023-08-20T12:11:26;4.75;;;3.00;;
66607;SDS011;53462;39.616;8.824;2023-08-20T12:13:53;5.38;;;2.90;;
66607;SDS011;53462;39.616;8.824;2023-08-20T12:16:23;5.78;;;2.95;;
66607;SDS011;53462;39.616;8.824;2023-08-20T12:18:50;5.80;;;2.83;;
66607;SDS011;53462;39.616;8.824;2023-08-20T12:21:17;9.55;;;2.85;;
66607;SDS011;53462;39.616;8.824;2023-08-20T12:23:43;6.40;;;2.60;;
66607;SDS011;53462;39.616;8.824;2023-08-20T12:26:09;9.73;;;2.55;;
66607;SDS011;53462;39.616;8.824;2023-08-20T12:28:35;3.38;;;2.60;;
66607;SDS011;53462;39.616;8.824;2023-08-20T12:31:01;6.60;;;2.70;;
66607;SDS011;53462;39.616;8.824;2023-08-20T12:33:28;5.25;;;2.53;;
66607;SDS011;53462;39.616;8.824;2023-08-20T12:35:54;3.25;;;2.60;;
66607;SDS011;53462;39.616;8.824;2023-08-20T12:38:21;5.93;;;2.95;;
66607;SDS011;53462;39.616;8.824;2023-08-20T12:40:47;6.18;;;2.42;;
66607;SDS011;53462;39.616;8.824;2023-08-20T12:43:13;6.15;;;2.30;;
66607;SDS011;53462;39.616;8.824;2023-08-20T12:45:39;7.03;;;2.30;;
66607;SDS011;53462;39.616;8.824;2023-08-20T12:48:05;3.78;;;2.40;;
66607;SDS011;53462;39.616;8.824;2023-08-20T12:50:32;6.13;;;2.38;;
66607;SDS011;53462;39.616;8.824;2023-08-20T12:52:59;4.10;;;2.42;;
66607;SDS011;53462;39.616;8.824;2023-08-20T12:55:25;6.05;;;2.47;;
66607;SDS011;53462;39.616;8.824;2023-08-20T12:57:57;4.93;;;2.17;;
66607;SDS011;53462;39.616;8.824;2023-08-20T13:00:24;5.25;;;2.60;;
66607;SDS011;53462;39.616;8.824;2023-08-20T13:02:51;8.35;;;2.40;;
66607;SDS011;53462;39.616;8.824;2023-08-20T13:05:19;4.72;;;2.35;;
66607;SDS011;53462;39.616;8.824;2023-08-20T13:07:47;6.18;;;2.58;;
66607;SDS011;53462;39.616;8.824;2023-08-20T13:10:14;4.78;;;2.40;;
66607;SDS011;53462;39.616;8.824;2023-08-20T13:12:41;3.67;;;2.60;;
66607;SDS011;53462;39.616;8.824;2023-08-20T13:15:13;5.97;;;2.78;;
66607;SDS011;53462;39.616;8.824;2023-08-20T13:17:39;4.13;;;2.40;;
66607;SDS011;53462;39.616;8.824;2023-08-20T13:20:06;3.03;;;2.17;;
66607;SDS011;53462;39.616;8.824;2023-08-20T13:22:33;4.97;;;2.58;;
66607;SDS011;53462;39.616;8.824;2023-08-20T13:24:59;8.63;;;2.60;;
66607;SDS011;53462;39.616;8.824;2023-08-20T13:27:25;6.90;;;2.38;;
66607;SDS011;53462;39.616;8.824;2023-08-20T13:29:51;3.67;;;2.40;;
66607;SDS011;53462;39.616;8.824;2023-08-20T13:32:17;5.10;;;2.50;;
66607;SDS011;53462;39.616;8.824;2023-08-20T13:34:43;5.75;;;2.80;;
66607;SDS011;53462;39.616;8.824;2023-08-20T13:37:09;5.25;;;2.40;;
66607;SDS011;53462;39.616;8.824;2023-08-20T13:39:34;5.00;;;2.58;;
66607;SDS011;53462;39.616;8.824;2023-08-20T13:42:00;4.78;;;2.42;;
66607;SDS011;53462;39.616;8.824;2023-08-20T13:44:26;6.63;;;2.33;;
66607;SDS011;53462;39.616;8.824;2023-08-20T13:46:52;5.03;;;2.50;;
66607;SDS011;53462;39.616;8.824;2023-08-20T13:49:18;4.70;;;2.58;;
66607;SDS011;53462;39.616;8.824;2023-08-20T13:51:44;3.75;;;2.60;;
66607;SDS011;53462;39.616;8.824;2023-08-20T13:54:10;8.30;;;2.78;;
66607;SDS011;53462;39.616;8.824;2023-08-20T13:56:36;4.90;;;2.80;;
66607;SDS011;53462;39.616;8.824;2023-08-20T13:59:02;6.50;;;2.60;;
66607;SDS011;53462;39.616;8.824;2023-08-20T14:01:28;5.47;;;2.60;;
66607;SDS011;53462;39.616;8.824;2023-08-20T14:03:54;5.15;;;2.17;;
66607;SDS011;53462;39.616;8.824;2023-08-20T14:06:20;4.40;;;2.20;;
66607;SDS011;53462;39.616;8.824;2023-08-20T14:08:45;4.68;;;2.78;;
66607;SDS011;53462;39.616;8.824;2023-08-20T14:11:11;3.60;;;2.30;;
66607;SDS011;53462;39.616;8.824;2023-08-20T14:13:37;4.13;;;2.45;;
66607;SDS011;53462;39.616;8.824;2023-08-20T14:16:03;7.63;;;2.50;;
66607;SDS011;53462;39.616;8.824;2023-08-20T14:18:29;8.85;;;2.60;;
66607;SDS011;53462;39.616;8.824;2023-08-20T14:20:55;4.72;;;2.55;;
66607;SDS011;53462;39.616;8.824;2023-08-20T14:23:21;5.70;;;2.70;;
66607;SDS011;53462;39.616;8.824;2023-08-20T14:25:47;6.38;;;2.63;;
66607;SDS011;53462;39.616;8.824;2023-08-20T14:28:13;5.38;;;2.50;;
66607;SDS011;53462;39.616;8.824;2023-08-20T14:30:39;4.95;;;2.53;;
66607;SDS011;53462;39.616;8.824;2023-08-20T14:33:05;5.05;;;2.60;;
66607;SDS011;53462;39.616;8.824;2023-08-20T14:35:31;5.55;;;2.70;;
66607;SDS011;53462;39.616;8.824;2023-08-20T14:37:57;8.77;;;2.47;;
66607;SDS011;53462;39.616;8.824;2023-08-20T14:40:23;5.78;;;2.50;;
66607;SDS011;53462;39.616;8.824;2023-08-20T14:42:51;4.15;;;2.55;;
66607;SDS011;53462;39.616;8.824;2023-08-20T14:45:17;5.55;;;2.88;;
66607;SDS011;53462;39.616;8.824;2023-08-20T14:47:43;6.95;;;3.00;;
66607;SDS011;53462;39.616;8.824;2023-08-20T14:50:09;6.32;;;2.95;;
66607;SDS011;53462;39.616;8.824;2023-08-20T14:52:35;8.38;;;3.03;;
66607;SDS011;53462;39.616;8.824;2023-08-20T14:55:01;9.52;;;3.00;;
66607;SDS011;53462;39.616;8.824;2023-08-20T14:57:29;4.88;;;2.80;;
66607;SDS011;53462;39.616;8.824;2023-08-20T14:59:55;4.32;;;2.53;;
66607;SDS011;53462;39.616;8.824;2023-08-20T15:02:21;6.32;;;2.67;;
66607;SDS011;53462;39.616;8.824;2023-08-20T15:04:47;4.45;;;2.80;;
66607;SDS011;53462;39.616;8.824;2023-08-20T15:07:13;4.53;;;2.90;;
66607;SDS011;53462;39.616;8.824;2023-08-20T15:09:39;7.40;;;3.30;;
66607;SDS011;53462;39.616;8.824;2023-08-20T15:12:05;5.25;;;2.63;;
66607;SDS011;53462;39.616;8.824;2023-08-20T15:14:31;6.35;;;2.80;;
66607;SDS011;53462;39.616;8.824;2023-08-20T15:16:58;9.45;;;3.10;;
66607;SDS011;53462;39.616;8.824;2023-08-20T15:19:24;9.60;;;3.20;;
66607;SDS011;53462;39.616;8.824;2023-08-20T15:21:50;10.20;;;3.33;;
66607;SDS011;53462;39.616;8.824;2023-08-20T15:24:15;7.32;;;3.00;;
66607;SDS011;53462;39.616;8.824;2023-08-20T15:26:41;6.15;;;2.80;;
66607;SDS011;53462;39.616;8.824;2023-08-20T15:29:07;6.25;;;2.85;;
66607;SDS011;53462;39.616;8.824;2023-08-20T15:31:33;8.15;;;3.22;;
66607;SDS011;53462;39.616;8.824;2023-08-20T15:33:59;5.05;;;2.80;;
66607;SDS011;53462;39.616;8.824;2023-08-20T15:36:25;4.03;;;2.80;;
66607;SDS011;53462;39.616;8.824;2023-08-20T15:38:51;4.78;;;2.80;;
66607;SDS011;53462;39.616;8.824;2023-08-20T15:41:18;8.30;;;2.83;;
66607;SDS011;53462;39.616;8.824;2023-08-20T15:43:44;8.48;;;3.28;;
66607;SDS011;53462;39.616;8.824;2023-08-20T15:46:10;6.50;;;3.00;;
66607;SDS011;53462;39.616;8.824;2023-08-20T15:48:36;7.90;;;3.20;;
66607;SDS011;53462;39.616;8.824;2023-08-20T15:51:01;5.47;;;3.10;;
66607;SDS011;53462;39.616;8.824;2023-08-20T15:53:27;6.80;;;3.30;;
66607;SDS011;53462;39.616;8.824;2023-08-20T15:55:53;7.93;;;3.40;;
66607;SDS011;53462;39.616;8.824;2023-08-20T15:58:19;10.43;;;3.20;;
66607;SDS011;53462;39.616;8.824;2023-08-20T16:00:45;7.90;;;3.25;;
66607;SDS011;53462;39.616;8.824;2023-08-20T16:03:11;9.98;;;3.13;;
66607;SDS011;53462;39.616;8.824;2023-08-20T16:05:38;4.57;;;2.97;;
66607;SDS011;53462;39.616;8.824;2023-08-20T16:08:04;9.68;;;2.90;;
66607;SDS011;53462;39.616;8.824;2023-08-20T16:10:30;7.13;;;3.13;;
66607;SDS011;53462;39.616;8.824;2023-08-20T16:12:56;4.57;;;2.80;;
66607;SDS011;53462;39.616;8.824;2023-08-20T16:15:22;6.65;;;3.50;;
66607;SDS011;53462;39.616;8.824;2023-08-20T16:17:49;6.25;;;2.90;;
66607;SDS011;53462;39.616;8.824;2023-08-20T16:20:15;10.25;;;3.42;;
66607;SDS011;53462;39.616;8.824;2023-08-20T16:22:41;5.85;;;2.90;;
66607;SDS011;53462;39.616;8.824;2023-08-20T16:25:07;11.43;;;3.45;;
66607;SDS011;53462;39.616;8.824;2023-08-20T16:27:33;13.23;;;3.17;;
66607;SDS011;53462;39.616;8.824;2023-08-20T16:29:59;5.40;;;3.10;;
66607;SDS011;53462;39.616;8.824;2023-08-20T16:32:25;5.38;;;3.15;;
66607;SDS011;53462;39.616;8.824;2023-08-20T16:34:51;6.78;;;3.00;;
66607;SDS011;53462;39.616;8.824;2023-08-20T16:37:17;6.63;;;2.80;;
66607;SDS011;53462;39.616;8.824;2023-08-20T16:39:43;6.55;;;2.90;;
66607;SDS011;53462;39.616;8.824;2023-08-20T16:42:09;6.70;;;3.13;;
66607;SDS011;53462;39.616;8.824;2023-08-20T16:44:35;6.55;;;3.17;;
66607;SDS011;53462;39.616;8.824;2023-08-20T16:47:01;7.68;;;3.08;;
66607;SDS011;53462;39.616;8.824;2023-08-20T16:49:27;4.00;;;2.60;;
66607;SDS011;53462;39.616;8.824;2023-08-20T16:51:53;6.53;;;2.53;;
66607;SDS011;53462;39.616;8.824;2023-08-20T16:54:19;7.38;;;2.80;;
66607;SDS011;53462;39.616;8.824;2023-08-20T16:56:45;7.57;;;2.70;;
66607;SDS011;53462;39.616;8.824;2023-08-20T16:59:11;6.43;;;2.70;;
66607;SDS011;53462;39.616;8.824;2023-08-20T17:01:37;7.05;;;2.70;;
66607;SDS011;53462;39.616;8.824;2023-08-20T17:04:02;5.20;;;2.78;;
66607;SDS011;53462;39.616;8.824;2023-08-20T17:06:28;9.98;;;2.80;;
66607;SDS011;53462;39.616;8.824;2023-08-20T17:08:54;6.38;;;2.60;;
66607;SDS011;53462;39.616;8.824;2023-08-20T17:11:20;6.78;;;2.70;;
66607;SDS011;53462;39.616;8.824;2023-08-20T17:13:46;6.68;;;2.60;;
66607;SDS011;53462;39.616;8.824;2023-08-20T17:16:12;5.88;;;2.42;;
66607;SDS011;53462;39.616;8.824;2023-08-20T17:18:38;5.28;;;2.83;;
66607;SDS011;53462;39.616;8.824;2023-08-20T17:21:04;7.93;;;2.80;;
66607;SDS011;53462;39.616;8.824;2023-08-20T17:23:29;5.70;;;2.70;;
66607;SDS011;53462;39.616;8.824;2023-08-20T17:25:56;7.75;;;2.97;;
66607;SDS011;53462;39.616;8.824;2023-08-20T17:28:22;7.95;;;2.63;;
66607;SDS011;53462;39.616;8.824;2023-08-20T17:30:48;6.93;;;2.88;;
66607;SDS011;53462;39.616;8.824;2023-08-20T17:33:15;6.20;;;2.63;;
66607;SDS011;53462;39.616;8.824;2023-08-20T17:35:42;5.15;;;2.70;;
66607;SDS011;53462;39.616;8.824;2023-08-20T17:38:08;6.75;;;3.13;;
66607;SDS011;53462;39.616;8.824;2023-08-20T17:40:36;6.20;;;2.63;;
66607;SDS011;53462;39.616;8.824;2023-08-20T17:43:04;5.25;;;2.83;;
66607;SDS011;53462;39.616;8.824;2023-08-20T17:45:31;9.90;;;2.85;;
66607;SDS011;53462;39.616;8.824;2023-08-20T17:48:00;11.48;;;3.00;;
66607;SDS011;53462;39.616;8.824;2023-08-20T17:50:26;7.68;;;2.90;;
66607;SDS011;53462;39.616;8.824;2023-08-20T17:52:52;8.45;;;2.65;;
66607;SDS011;53462;39.616;8.824;2023-08-20T17:55:17;8.95;;;2.85;;
66607;SDS011;53462;39.616;8.824;2023-08-20T17:57:43;5.93;;;2.53;;
66607;SDS011;53462;39.616;8.824;2023-08-20T18:00:09;5.30;;;2.75;;
66607;SDS011;53462;39.616;8.824;2023-08-20T18:02:38;6.10;;;2.80;;
66607;SDS011;53462;39.616;8.824;2023-08-20T18:05:04;7.95;;;2.80;;
66607;SDS011;53462;39.616;8.824;2023-08-20T18:07:30;7.57;;;2.88;;
66607;SDS011;53462;39.616;8.824;2023-08-20T18:09:59;5.93;;;2.90;;
66607;SDS011;53462;39.616;8.824;2023-08-20T18:12:26;4.88;;;2.90;;
66607;SDS011;53462;39.616;8.824;2023-08-20T18:14:52;6.38;;;2.88;;
66607;SDS011;53462;39.616;8.824;2023-08-20T18:17:18;7.72;;;2.80;;
66607;SDS011;53462;39.616;8.824;2023-08-20T18:19:44;9.05;;;2.90;;
66607;SDS011;53462;39.616;8.824;2023-08-20T18:22:10;13.10;;;2.83;;
66607;SDS011;53462;39.616;8.824;2023-08-20T18:24:36;6.00;;;2.83;;
66607;SDS011;53462;39.616;8.824;2023-08-20T18:27:02;9.38;;;2.80;;
66607;SDS011;53462;39.616;8.824;2023-08-20T18:29:27;7.40;;;2.53;;
66607;SDS011;53462;39.616;8.824;2023-08-20T18:31:53;6.85;;;2.92;;
66607;SDS011;53462;39.616;8.824;2023-08-20T18:34:19;6.57;;;2.75;;
66607;SDS011;53462;39.616;8.824;2023-08-20T18:36:45;7.43;;;2.90;;
66607;SDS011;53462;39.616;8.824;2023-08-20T18:39:13;5.25;;;3.28;;
66607;SDS011;53462;39.616;8.824;2023-08-20T18:41:40;7.10;;;3.00;;
66607;SDS011;53462;39.616;8.824;2023-08-20T18:44:06;6.10;;;3.58;;
66607;SDS011;53462;39.616;8.824;2023-08-20T18:46:32;8.13;;;3.00;;
66607;SDS011;53462;39.616;8.824;2023-08-20T18:48:59;6.25;;;3.08;;